Aeroporto :
LOGIN :

Iscrizione | Disclaimer

   EN    FR    IT 

 










Sommario :    VFR   VFR Marginale   IFR   IFR Intensivo   IFR Molto Intensivo
Visibilità : 
Base nubi : 
>= 8 km
>= 3000ft
5 / 8 km
1000 / 3000 ft
1500m / 5 km
500 / 1000 ft
800 / 1500m
200 / 500 ft
< 800m
< 200 ft
Simboli :   Temporali  Nebbia  Neve Forte  Precipitazioni Forti  Vento > 20 kt
SIGMETs :   Varie  Temporali  Ghiacco  Turbolenza  Onda orograficha  Ceneri Vulcaniche







- Altitudine del aeroporto : 464 ft
- Codice IATA : EVX
- Carte del aeroporto


LFOE - Evreux

ULTIMO METAR :
  • 211830Z AUTO 32003KT 6000 NSC 08/06 Q1030 NOSIG

METARs OBSOLETI :
  • 211800Z AUTO 33001KT 8000 NSC 08/06 Q1029 NOSIG
  • 211730Z AUTO 00000KT 8000 NSC 10/07 Q1029 NOSIG
  • 211700Z AUTO 00000KT CAVOK 12/07 Q1029 NOSIG
  • 211630Z AUTO 07002KT CAVOK 13/07 Q1029 NOSIG
  • 211600Z AUTO VRB03KT CAVOK 13/07 Q1029 NOSIG
  • 211530Z AUTO VRB02KT CAVOK 13/07 Q1029 NOSIG

TAF TAF LFOE
Valido dal 21 a 15 ore il 22 a 15 ore UTC


211400Z 2115/2215 08003KT 9000 NSC
BECMG 2122/2124 2000 BR
BECMG 2200/2203 0200 FG VV///
TEMPO 2203/2209 0100
BECMG 2210/2212 2000 BR BKN002
BECMG 2212/2214 9000 NSW NSC
Nessun NOTAM noto per questo aeroporto.



MetMap, La meteo Aeronautica in un colpo d'occhio ! - Copyright ORBIFLY Dicembre 2007 - Disclaimer

ORBIFLY MET'MAP TEAM :

Programmazione e sviluppo : Alexandra Zaïnal
Concezione e sviluppo : Baudouin d'Aumeries
Co-Programmazione e sviluppo : Marc-Olivier Méhu
Supporto tecnico e logistico : Manuel Goepfert
Aiuto per la traduzione : Arnaldo La Scala

Contatto : metmap@orbifly.com




FONTI E CREDITI :

   NOAA